Time;durP1;ratioP1;P1;durP2;ratioP2;P2;SDS_P1;SDS_P2;PMS_P1;PMS_P2;Temp;Humidity;BMP_temperature;BMP_pressure;BME280_temperature;BME280_humidity;BME280_pressure;Samples;Min_cycle;Max_cycle;Signal;HPM_P1;HPM_P2
2021/09/26 00:01:17;;;;;;;;;;;;;;;10.76;86.33;98568.88;5013118;28;19922;-76
2021/09/26 00:03:43;;;;;;;;;;;;;;;10.79;86.47;98580.03;5014757;28;19933;-76
2021/09/26 00:06:08;;;;;;;;;;;;;;;10.79;86.24;98577.44;5012690;28;20400;-76
2021/09/26 00:08:34;;;;;;;;;;;;;;;10.78;86.23;98580.94;5012652;28;20385;-76
2021/09/26 00:11:05;;;;;;;;;;;;;;;10.78;86.28;98575.72;5013966;28;19925;-75
2021/09/26 00:13:32;;;;;;;;;;;;;;;10.79;86.26;98587.84;5028731;28;19925;-75
2021/09/26 00:15:57;;;;;;;;;;;;;;;10.82;86.45;98581.69;5033315;28;21040;-76
2021/09/26 00:18:23;;;;;;;;;;;;;;;10.81;86.28;98595.63;5033108;28;19921;-75
2021/09/26 00:20:48;;;;;;;;;;;;;;;10.80;86.22;98597.34;5034009;28;20007;-74
2021/09/26 00:23:14;;;;;;;;;;;;;;;10.79;86.11;98592.22;5033142;28;20300;-75
2021/09/26 00:25:39;;;;;;;;;;;;;;;10.76;86.16;98597.50;5014921;28;19979;-75
2021/09/26 00:28:05;;;;;;;;;;;;;;;10.74;86.45;98589.72;5015838;28;19933;-75
2021/09/26 00:30:30;;;;;;;;;;;;;;;10.69;86.23;98587.25;5015649;28;19927;-74
2021/09/26 00:32:56;;;;;;;;;;;;;;;10.68;86.39;98589.91;4999317;28;19932;-75
2021/09/26 00:35:22;;;;;;;;;;;;;;;10.66;86.22;98587.34;5032232;28;20350;-76
2021/09/26 00:37:47;;;;;;;;;;;;;;;10.68;86.51;98574.31;5014023;28;19928;-76
2021/09/26 00:40:13;;;;;;;;;;;;;;;10.68;86.53;98582.13;5033676;28;20024;-74
2021/09/26 00:42:38;;;;;;;;;;;;;;;10.65;86.17;98577.00;5014410;28;20007;-75
2021/09/26 00:45:04;;;;;;;;;;;;;;;10.59;86.17;98582.38;5015077;28;19921;-74
2021/09/26 00:47:30;;;;;;;;;;;;;;;10.59;86.69;98580.63;5013323;28;20032;-75
2021/09/26 00:49:55;;;;;;;;;;;;;;;10.56;86.24;98585.91;5030737;28;20060;-74
2021/09/26 00:52:21;;;;;;;;;;;;;;;10.56;86.65;98588.53;5013505;28;19995;-75
2021/09/26 00:54:47;;;;;;;;;;;;;;;10.59;86.27;98595.38;4998144;28;19920;-75
2021/09/26 00:57:13;;;;;;;;;;;;;;;10.58;86.63;98593.66;5014255;28;19921;-76
2021/09/26 00:59:38;;;;;;;;;;;;;;;10.60;86.39;98597.91;5014652;28;20371;-75
2021/09/26 01:02:04;;;;;;;;;;;;;;;10.60;86.17;98602.28;5032335;28;19921;-75
2021/09/26 01:04:30;;;;;;;;;;;;;;;10.61;86.67;98602.22;5031584;28;19924;-76
2021/09/26 01:07:10;;;;;;;;;;;;;;;10.64;86.32;98604.75;5034406;28;19970;-76
2021/09/26 01:09:41;;;;;;;;;;;;;;;10.64;86.54;98593.50;5032021;28;19925;-74
2021/09/26 01:12:06;;;;;;;;;;;;;;;10.60;86.19;98602.28;5014379;28;19924;-77
2021/09/26 01:14:39;;;;;;;;;;;;;;;10.57;86.13;98605.84;5033148;28;19928;-75
2021/09/26 01:17:09;;;;;;;;;;;;;;;10.58;86.45;98604.06;5031842;28;19925;-74
2021/09/26 01:19:38;;;;;;;;;;;;;;;10.55;86.64;98598.06;5031220;28;20360;-76
2021/09/26 01:22:07;;;;;;;;;;;;;;;10.59;86.24;98597.97;5014964;28;19921;-75
2021/09/26 01:24:41;;;;;;;;;;;;;;;10.55;86.28;98598.06;5009635;28;19926;-75
2021/09/26 01:27:10;;;;;;;;;;;;;;;10.52;86.16;98598.13;5015649;28;19921;-77
2021/09/26 01:30:07;;;;;;;;;;;;;;;10.50;86.70;98601.69;5034042;28;20016;-74
2021/09/26 01:32:34;;;;;;;;;;;;;;;10.47;86.40;98607.84;4962157;28;19960;-76
2021/09/26 01:35:04;;;;;;;;;;;;;;;10.47;86.52;98604.38;5016178;28;19925;-74
2021/09/26 01:38:00;;;;;;;;;;;;;;;10.47;86.19;98610.44;4998872;28;20304;-74
2021/09/26 01:40:28;;;;;;;;;;;;;;;10.48;86.09;98613.88;5001089;28;20325;-75
2021/09/26 01:42:55;;;;;;;;;;;;;;;10.49;86.29;98616.41;5033348;28;19920;-76
2021/09/26 01:45:21;;;;;;;;;;;;;;;10.50;86.63;98617.28;5014743;28;19921;-74
2021/09/26 01:47:57;;;;;;;;;;;;;;;10.50;86.45;98615.53;5014004;28;20483;-75
2021/09/26 01:50:24;;;;;;;;;;;;;;;10.51;86.56;98616.41;5013351;28;20026;-75
2021/09/26 01:52:50;;;;;;;;;;;;;;;10.50;86.34;98612.09;5012312;28;19932;-73
2021/09/26 01:55:17;;;;;;;;;;;;;;;10.49;86.61;98615.59;5036340;28;19925;-74
2021/09/26 01:57:43;;;;;;;;;;;;;;;10.48;86.61;98619.91;5031449;28;20028;-75
2021/09/26 02:00:10;;;;;;;;;;;;;;;10.48;86.47;98619.91;5031655;28;20048;-75
2021/09/26 02:02:41;;;;;;;;;;;;;;;10.47;86.53;98612.16;5030852;28;19975;-76
2021/09/26 02:05:07;;;;;;;;;;;;;;;10.45;86.10;98635.63;5033076;28;19921;-75
2021/09/26 02:07:36;;;;;;;;;;;;;;;10.45;86.37;98622.63;5032619;28;19921;-75
2021/09/26 02:10:02;;;;;;;;;;;;;;;10.45;86.34;98625.22;4998156;28;20476;-77
2021/09/26 02:12:28;;;;;;;;;;;;;;;10.44;86.57;98622.66;5009654;28;19926;-76
2021/09/26 02:14:55;;;;;;;;;;;;;;;10.42;86.27;98629.63;5012371;28;19928;-75
2021/09/26 02:17:22;;;;;;;;;;;;;;;10.42;86.28;98634.84;5010780;28;19932;-75
2021/09/26 02:19:49;;;;;;;;;;;;;;;10.40;86.53;98633.13;5010599;28;20130;-77
2021/09/26 02:22:15;;;;;;;;;;;;;;;10.43;86.26;98633.94;5010361;28;19948;-75
2021/09/26 02:24:41;;;;;;;;;;;;;;;10.41;86.03;98631.41;5010865;28;19925;-77
2021/09/26 02:27:07;;;;;;;;;;;;;;;10.42;86.23;98629.63;5010778;28;20270;-75
2021/09/26 02:29:33;;;;;;;;;;;;;;;10.41;86.03;98628.81;5017043;28;19948;-75
2021/09/26 02:31:58;;;;;;;;;;;;;;;10.38;86.42;98627.13;5010938;28;19921;-75
2021/09/26 02:34:24;;;;;;;;;;;;;;;10.40;86.25;98642.69;5011574;28;19945;-75
2021/09/26 02:36:49;;;;;;;;;;;;;;;10.37;86.06;98642.75;5009859;28;19927;-76
2021/09/26 02:39:16;;;;;;;;;;;;;;;10.37;85.89;98642.75;5011035;28;19921;-75
2021/09/26 02:41:47;;;;;;;;;;;;;;;10.35;86.38;98641.91;5008831;28;19928;-75
2021/09/26 02:44:19;;;;;;;;;;;;;;;10.31;85.94;98643.75;5025951;28;20325;-75
2021/09/26 02:46:47;;;;;;;;;;;;;;;10.31;86.22;98648.09;5012381;28;20736;-76
2021/09/26 02:49:12;;;;;;;;;;;;;;;10.29;85.99;98647.28;5010152;28;20312;-75
2021/09/26 02:51:39;;;;;;;;;;;;;;;10.27;86.34;98646.47;5009197;28;19921;-76
2021/09/26 02:54:05;;;;;;;;;;;;;;;10.25;86.07;98643.91;5010144;28;20495;-75
2021/09/26 02:56:31;;;;;;;;;;;;;;;10.27;85.86;98649.06;5018416;28;20289;-74
2021/09/26 02:59:00;;;;;;;;;;;;;;;10.25;86.21;98660.38;5009171;28;19932;-76
2021/09/26 03:01:26;;;;;;;;;;;;;;;10.27;86.27;98654.25;5009337;28;19979;-77
2021/09/26 03:03:52;;;;;;;;;;;;;;;10.23;86.00;98654.38;5018066;28;19921;-75
2021/09/26 03:06:17;;;;;;;;;;;;;;;10.22;86.27;98651.78;5009180;28;19932;-77
2021/09/26 03:08:43;;;;;;;;;;;;;;;10.23;85.78;98651.78;5011030;28;19925;-75
2021/09/26 03:11:08;;;;;;;;;;;;;;;10.22;85.90;98652.66;5011137;28;19976;-76
2021/09/26 03:13:34;;;;;;;;;;;;;;;10.22;85.87;98659.59;5019450;28;19925;-76
2021/09/26 03:15:59;;;;;;;;;;;;;;;10.18;85.65;98651.03;4997027;28;19933;-75
2021/09/26 03:18:25;;;;;;;;;;;;;;;10.20;86.29;98651.84;5022346;28;19969;-75
2021/09/26 03:20:50;;;;;;;;;;;;;;;10.19;85.81;98655.34;5026447;28;19921;-75
2021/09/26 03:23:16;;;;;;;;;;;;;;;9.93;86.10;98622.22;5014353;28;19932;-77
2021/09/26 03:25:41;;;;;;;;;;;;;;;10.14;85.76;98657.19;5014382;28;19921;-76
2021/09/26 03:28:07;;;;;;;;;;;;;;;10.13;85.68;98665.88;5012555;28;20033;-73
2021/09/26 03:30:33;;;;;;;;;;;;;;;10.12;85.64;98661.56;5021178;28;19977;-75
2021/09/26 03:32:59;;;;;;;;;;;;;;;10.13;86.04;98660.69;5013240;28;19921;-75
2021/09/26 03:35:25;;;;;;;;;;;;;;;10.14;85.91;98661.56;5020447;28;19928;-74
2021/09/26 03:37:53;;;;;;;;;;;;;;;10.12;85.66;98658.97;5013073;28;20328;-75
2021/09/26 03:40:18;;;;;;;;;;;;;;;10.08;85.93;98662.53;4995302;28;19927;-75
2021/09/26 03:42:44;;;;;;;;;;;;;;;10.10;85.61;98663.34;5013968;28;19922;-76
2021/09/26 03:45:10;;;;;;;;;;;;;;;10.11;85.84;98662.47;5011676;28;19972;-76
2021/09/26 03:47:36;;;;;;;;;;;;;;;10.12;85.91;98658.97;5012787;28;19951;-75
2021/09/26 03:50:02;;;;;;;;;;;;;;;10.07;85.39;98661.69;5014289;28;20303;-75
2021/09/26 03:52:28;;;;;;;;;;;;;;;10.05;85.91;98662.59;5013568;28;19928;-75
2021/09/26 03:54:53;;;;;;;;;;;;;;;10.02;85.93;98665.31;5022514;28;19921;-75
2021/09/26 03:57:19;;;;;;;;;;;;;;;10.02;85.71;98666.16;5015658;28;20000;-75
2021/09/26 03:59:44;;;;;;;;;;;;;;;9.99;85.51;98660.19;5014582;28;20420;-76
2021/09/26 04:02:10;;;;;;;;;;;;;;;9.96;85.97;98663.69;5017711;28;19928;-75
2021/09/26 04:04:36;;;;;;;;;;;;;;;9.95;85.69;98668.03;5014110;28;21057;-74
2021/09/26 04:07:01;;;;;;;;;;;;;;;9.95;85.99;98672.38;5012245;28;19921;-76
2021/09/26 04:09:27;;;;;;;;;;;;;;;9.90;85.83;98667.28;4997462;28;20250;-76
2021/09/26 04:11:52;;;;;;;;;;;;;;;9.91;85.49;98669.00;5015167;28;19929;-75
2021/09/26 04:14:18;;;;;;;;;;;;;;;9.93;85.96;98667.22;5016851;28;19928;-74
2021/09/26 04:16:44;;;;;;;;;;;;;;;9.91;85.21;98676.81;5032629;28;19930;-76
2021/09/26 04:19:09;;;;;;;;;;;;;;;9.89;85.70;98673.38;5003632;28;20729;-76
2021/09/26 04:21:35;;;;;;;;;;;;;;;9.88;85.87;98676.03;5021953;28;19921;-75
2021/09/26 04:24:00;;;;;;;;;;;;;;;9.89;85.70;98675.16;5020657;28;20053;-75
2021/09/26 04:26:26;;;;;;;;;;;;;;;9.89;85.47;98673.38;5038799;28;20012;-74
2021/09/26 04:28:51;;;;;;;;;;;;;;;9.90;85.50;98671.66;5034415;28;19933;-76
2021/09/26 04:31:17;;;;;;;;;;;;;;;9.94;85.56;98681.06;5015877;28;19925;-75
2021/09/26 04:33:42;;;;;;;;;;;;;;;9.97;85.31;98681.00;5034185;28;19975;-76
2021/09/26 04:36:08;;;;;;;;;;;;;;;9.97;85.29;98681.00;5017588;28;19921;-75
2021/09/26 04:38:33;;;;;;;;;;;;;;;9.94;85.15;98681.94;5033774;28;19921;-75
2021/09/26 04:40:59;;;;;;;;;;;;;;;9.89;85.15;98678.56;5033335;28;19928;-76
2021/09/26 04:43:25;;;;;;;;;;;;;;;9.87;85.52;98677.75;5022074;28;19928;-75
2021/09/26 04:45:50;;;;;;;;;;;;;;;9.90;85.41;98682.06;5032593;28;19983;-75
2021/09/26 04:48:16;;;;;;;;;;;;;;;9.89;85.12;98680.34;5015297;28;19936;-76
2021/09/26 04:50:42;;;;;;;;;;;;;;;9.92;85.41;98682.88;5033445;28;19920;-77
2021/09/26 04:53:07;;;;;;;;;;;;;;;9.94;85.42;98681.06;5031899;28;19982;-77
2021/09/26 04:55:33;;;;;;;;;;;;;;;9.92;85.12;98683.72;5015177;28;20323;-74
2021/09/26 04:58:00;;;;;;;;;;;;;;;9.92;85.11;98683.72;5032728;28;19921;-77
2021/09/26 05:00:26;;;;;;;;;;;;;;;9.97;85.28;98682.75;5024721;28;19925;-77
2021/09/26 05:02:52;;;;;;;;;;;;;;;10.03;85.53;98690.41;5036472;28;20325;-76
2021/09/26 05:05:18;;;;;;;;;;;;;;;10.07;85.24;98695.47;5033706;28;20327;-76
2021/09/26 05:07:43;;;;;;;;;;;;;;;10.15;85.23;98699.66;5031561;28;19950;-76
2021/09/26 05:10:09;;;;;;;;;;;;;;;10.22;85.49;98702.06;5014708;28;19929;-76
2021/09/26 05:12:35;;;;;;;;;;;;;;;10.33;85.64;98695.72;5031499;28;20368;-75
2021/09/26 05:15:04;;;;;;;;;;;;;;;10.39;84.75;98704.22;5014296;28;19925;-76
2021/09/26 05:17:33;;;;;;;;;;;;;;;10.47;84.97;98700.59;5031485;28;20172;-77
2021/09/26 05:19:59;;;;;;;;;;;;;;;10.59;85.20;98702.03;5032439;28;19927;-76
2021/09/26 05:22:25;;;;;;;;;;;;;;;10.65;84.65;98701.88;5032272;28;20530;-76
2021/09/26 05:24:51;;;;;;;;;;;;;;;10.75;84.92;98705.06;5034990;28;19940;-77
2021/09/26 05:27:16;;;;;;;;;;;;;;;10.78;84.71;98711.03;5023063;28;19925;-77
2021/09/26 05:29:42;;;;;;;;;;;;;;;10.81;84.69;98716.16;5033464;28;19931;-76
2021/09/26 05:32:08;;;;;;;;;;;;;;;10.80;84.49;98714.47;5033842;28;19963;-75
2021/09/26 05:34:34;;;;;;;;;;;;;;;10.83;84.70;98719.59;5034201;28;19920;-77
2021/09/26 05:37:00;;;;;;;;;;;;;;;10.85;83.94;98720.41;4997296;28;20377;-77
2021/09/26 05:39:26;;;;;;;;;;;;;;;10.88;84.15;98716.84;5014657;28;19925;-77
2021/09/26 05:41:55;;;;;;;;;;;;;;;10.98;84.31;98717.44;5007959;28;20011;-76
2021/09/26 05:44:21;;;;;;;;;;;;;;;10.99;84.26;98720.03;5000809;28;19924;-76
2021/09/26 05:46:47;;;;;;;;;;;;;;;11.01;84.08;98717.38;5018023;28;20467;-77
2021/09/26 05:49:13;;;;;;;;;;;;;;;11.00;83.59;98721.72;5006006;28;20316;-77
2021/09/26 05:51:39;;;;;;;;;;;;;;;11.00;84.15;98723.47;5031100;28;19932;-76
2021/09/26 05:54:04;;;;;;;;;;;;;;;11.00;83.53;98731.28;5000145;28;19921;-77
2021/09/26 05:56:30;;;;;;;;;;;;;;;11.02;84.01;98734.69;5033433;28;20404;-77
2021/09/26 05:58:56;;;;;;;;;;;;;;;11.08;83.80;98739.72;5016317;28;19925;-77
2021/09/26 06:01:22;;;;;;;;;;;;;;;11.15;83.84;98745.63;4999377;28;19927;-77
2021/09/26 06:03:47;;;;;;;;;;;;;;;11.15;83.78;98743.84;5037082;28;20327;-77
2021/09/26 06:06:13;;;;;;;;;;;;;;;11.11;83.50;98737.03;5025452;28;19972;-77
2021/09/26 06:08:38;;;;;;;;;;;;;;;11.12;83.46;98738.75;5018363;28;19925;-77
2021/09/26 06:11:04;;;;;;;;;;;;;;;11.13;83.63;98750.88;5042849;28;19968;-75
2021/09/26 06:13:30;;;;;;;;;;;;;;;11.07;83.58;98748.44;5001934;28;20020;-76
2021/09/26 06:15:56;;;;;;;;;;;;;;;11.04;83.31;98752.84;5018599;28;20352;-76
2021/09/26 06:18:23;;;;;;;;;;;;;;;11.02;83.34;98758.13;5032412;28;19921;-76
2021/09/26 06:20:49;;;;;;;;;;;;;;;10.96;83.37;98753.94;5013526;28;19928;-77
2021/09/26 06:23:14;;;;;;;;;;;;;;;10.94;83.61;98757.47;5030735;28;19920;-76
2021/09/26 06:25:40;;;;;;;;;;;;;;;10.84;83.34;98760.31;5013150;28;19925;-76
2021/09/26 06:28:06;;;;;;;;;;;;;;;10.76;83.42;98764.03;5004443;28;19925;-76
2021/09/26 06:30:32;;;;;;;;;;;;;;;10.73;83.60;98770.16;5006587;28;19978;-77
2021/09/26 06:33:00;;;;;;;;;;;;;;;10.69;83.55;98765.94;5012287;28;20087;-76
2021/09/26 06:35:25;;;;;;;;;;;;;;;10.70;83.45;98772.84;5030518;28;19932;-75
2021/09/26 06:37:51;;;;;;;;;;;;;;;10.74;83.50;98776.22;5014511;28;20337;-76
2021/09/26 06:40:16;;;;;;;;;;;;;;;10.69;83.25;98778.94;5012829;28;19929;-75
2021/09/26 06:42:45;;;;;;;;;;;;;;;10.72;83.42;98781.44;5030606;28;20107;-77
2021/09/26 06:45:13;;;;;;;;;;;;;;;10.70;83.06;98781.50;5030676;28;19944;-76
2021/09/26 06:47:39;;;;;;;;;;;;;;;10.66;82.96;98784.22;5014889;28;19921;-77
2021/09/26 06:50:06;;;;;;;;;;;;;;;10.65;83.10;98782.50;5036988;28;19990;-75
2021/09/26 06:52:31;;;;;;;;;;;;;;;10.73;83.45;98784.91;5030480;28;19959;-76
2021/09/26 06:54:57;;;;;;;;;;;;;;;10.92;83.63;98793.13;5034763;28;19972;-76
2021/09/26 06:57:22;;;;;;;;;;;;;;;11.06;83.33;98787.50;5035323;28;19921;-76
2021/09/26 06:59:54;;;;;;;;;;;;;;;11.13;83.55;98795.16;5018626;28;19921;-76
2021/09/26 07:02:30;;;;;;;;;;;;;;;11.26;83.40;98787.81;5000437;28;20456;-76
2021/09/26 07:04:56;;;;;;;;;;;;;;;11.43;83.55;98799.53;5020356;28;20428;-78
2021/09/26 07:07:23;;;;;;;;;;;;;;;11.51;83.40;98802.75;5033878;28;19925;-78
2021/09/26 07:09:52;;;;;;;;;;;;;;;11.61;83.50;98805.94;5015899;28;19929;-77
2021/09/26 07:12:18;;;;;;;;;;;;;;;11.69;83.21;98803.97;5016335;28;19936;-76
2021/09/26 07:14:45;;;;;;;;;;;;;;;11.75;83.01;98811.63;4997309;28;19927;-77
2021/09/26 07:17:31;;;;;;;;;;;;;;;11.79;82.91;98808.94;5035383;28;20449;-76
2021/09/26 07:20:15;;;;;;;;;;;;;;;11.80;82.82;98816.69;4999462;28;20386;-76
2021/09/26 07:22:44;;;;;;;;;;;;;;;11.94;82.69;98818.91;5015154;28;19925;-75
2021/09/26 07:25:10;;;;;;;;;;;;;;;12.27;83.22;98810.13;5034837;28;19943;-75
2021/09/26 07:27:36;;;;;;;;;;;;;;;12.72;82.78;98809.53;5033536;28;20388;-76
2021/09/26 07:30:01;;;;;;;;;;;;;;;12.91;82.35;98819.34;5016553;28;19932;-76
2021/09/26 07:32:27;;;;;;;;;;;;;;;13.00;81.95;98826.00;5016546;28;19920;-76
2021/09/26 07:34:53;;;;;;;;;;;;;;;13.03;81.78;98828.50;5035483;28;19925;-76
2021/09/26 07:37:25;;;;;;;;;;;;;;;13.13;81.58;98819.44;4998895;28;20400;-76
2021/09/26 07:39:51;;;;;;;;;;;;;;;13.29;81.74;98832.81;5000367;28;20332;-76
2021/09/26 07:42:17;;;;;;;;;;;;;;;13.39;81.81;98839.44;5018598;28;20019;-78
2021/09/26 07:44:45;;;;;;;;;;;;;;;13.57;81.25;98836.25;5033830;28;19940;-75
2021/09/26 07:47:11;;;;;;;;;;;;;;;13.65;80.98;98842.03;5016866;28;20381;-77
2021/09/26 07:49:57;;;;;;;;;;;;;;;13.66;80.83;98839.38;5036537;28;19979;-76
2021/09/26 07:52:30;;;;;;;;;;;;;;;13.66;80.54;98835.91;5032360;28;20379;-78
2021/09/26 07:54:57;;;;;;;;;;;;;;;13.74;80.48;98846.06;5022522;28;19951;-78
2021/09/26 07:57:23;;;;;;;;;;;;;;;13.75;79.78;98846.03;5000012;28;19920;-76
2021/09/26 07:59:53;;;;;;;;;;;;;;;13.79;80.18;98844.97;4999321;28;20373;-76
2021/09/26 08:02:22;;;;;;;;;;;;;;;13.78;79.71;98853.75;5033262;28;19925;-75
2021/09/26 08:04:56;;;;;;;;;;;;;;;13.69;79.55;98856.69;5031955;28;19921;-76
2021/09/26 08:07:22;;;;;;;;;;;;;;;13.54;78.89;98858.97;5035417;28;19943;-74
2021/09/26 08:09:47;;;;;;;;;;;;;;;13.41;79.21;98862.91;5010403;28;19925;-75
2021/09/26 08:12:13;;;;;;;;;;;;;;;13.16;78.67;98868.97;5032653;28;19979;-76
2021/09/26 08:14:39;;;;;;;;;;;;;;;13.06;79.21;98872.81;5046641;28;20010;-76
2021/09/26 08:17:04;;;;;;;;;;;;;;;12.93;78.74;98874.97;5001073;28;20380;-77
2021/09/26 08:19:31;;;;;;;;;;;;;;;12.73;78.62;98880.84;4999609;28;19926;-78
2021/09/26 08:22:15;;;;;;;;;;;;;;;12.68;79.03;98875.78;4992840;28;19921;-76
2021/09/26 08:24:49;;;;;;;;;;;;;;;12.65;79.03;98889.78;5012626;28;20326;-77
2021/09/26 08:27:18;;;;;;;;;;;;;;;12.75;79.31;98882.50;5000768;28;19925;-76
2021/09/26 08:29:45;;;;;;;;;;;;;;;12.98;79.35;98890.47;5033482;28;19932;-77
2021/09/26 08:32:28;;;;;;;;;;;;;;;13.17;79.26;98888.94;5017107;28;19925;-77
2021/09/26 08:34:56;;;;;;;;;;;;;;;13.36;78.95;98891.78;5016214;28;19928;-76
2021/09/26 08:40:22;;;;;;;;;;;;;;;14.04;78.30;98903.38;5015724;28;19948;-76
2021/09/26 08:42:48;;;;;;;;;;;;;;;14.51;78.90;98903.31;5034570;28;19927;-77
2021/09/26 08:45:20;;;;;;;;;;;;;;;14.82;78.18;98907.34;5033877;28;19921;-78
2021/09/26 08:47:48;;;;;;;;;;;;;;;14.91;77.43;98909.59;5035193;28;19921;-79
2021/09/26 08:50:18;;;;;;;;;;;;;;;14.78;76.74;98904.91;5034057;28;20407;-77
2021/09/26 08:52:47;;;;;;;;;;;;;;;14.56;76.60;98918.84;5031132;28;19921;-78
2021/09/26 08:55:14;;;;;;;;;;;;;;;14.48;76.97;98926.13;5000211;28;19920;-77
2021/09/26 08:57:40;;;;;;;;;;;;;;;14.41;76.35;98922.91;5027078;28;20174;-76
2021/09/26 09:00:15;;;;;;;;;;;;;;;14.43;76.56;98926.31;5007761;28;19921;-76
2021/09/26 09:02:41;;;;;;;;;;;;;;;14.54;76.59;98928.50;5012958;28;20257;-76
2021/09/26 09:05:42;;;;;;;;;;;;;;;14.71;76.69;98928.72;5026429;28;19928;-77
2021/09/26 09:08:15;;;;;;;;;;;;;;;14.79;76.08;98936.28;5025943;28;19975;-79
2021/09/26 09:10:47;;;;;;;;;;;;;;;15.04;76.19;98940.53;4980998;28;19928;-77
2021/09/26 09:13:14;;;;;;;;;;;;;;;15.31;75.64;98940.28;5009151;28;20407;-78
2021/09/26 09:15:43;;;;;;;;;;;;;;;15.35;75.61;98942.72;5010545;28;19922;-78
2021/09/26 09:18:10;;;;;;;;;;;;;;;15.24;74.79;98944.94;5015836;28;19964;-76
2021/09/26 09:20:41;;;;;;;;;;;;;;;15.09;75.13;98943.81;5020468;28;19947;-79
2021/09/26 09:23:13;;;;;;;;;;;;;;;14.92;74.56;98954.97;5011215;28;19925;-79
2021/09/26 09:25:41;;;;;;;;;;;;;;;14.59;73.75;98950.97;5010697;28;19972;-75
2021/09/26 09:28:12;;;;;;;;;;;;;;;14.30;74.62;98959.94;5010602;28;19986;-78
2021/09/26 09:30:39;;;;;;;;;;;;;;;14.05;75.08;98944.31;5021521;28;20021;-78
2021/09/26 09:33:05;;;;;;;;;;;;;;;13.83;74.65;98959.00;4998756;28;20063;-77
2021/09/26 09:35:34;;;;;;;;;;;;;;;13.76;75.08;98960.16;5014910;28;19935;-75
2021/09/26 09:38:00;;;;;;;;;;;;;;;13.64;75.19;98968.41;5015135;28;19929;-76
2021/09/26 09:40:25;;;;;;;;;;;;;;;13.54;74.74;98967.88;5016695;28;20333;-75
2021/09/26 09:42:55;;;;;;;;;;;;;;;13.43;74.86;98972.63;5015202;28;20099;-77
2021/09/26 09:45:43;;;;;;;;;;;;;;;13.36;75.49;98974.53;5021174;28;19957;-77
2021/09/26 09:48:14;;;;;;;;;;;;;;;13.43;75.35;98977.84;5024441;28;19936;-77
2021/09/26 09:50:55;;;;;;;;;;;;;;;13.47;75.46;98980.31;5024812;28;19972;-77
2021/09/26 09:53:32;;;;;;;;;;;;;;;13.50;75.51;98988.03;5035512;28;19925;-77
2021/09/26 09:56:09;;;;;;;;;;;;;;;13.51;75.24;98983.66;5005687;28;19925;-77
2021/09/26 09:58:54;;;;;;;;;;;;;;;13.48;75.47;98991.59;5024619;28;19967;-74
2021/09/26 10:01:33;;;;;;;;;;;;;;;13.41;75.42;98990.94;5025173;28;19920;-77
2021/09/26 10:04:21;;;;;;;;;;;;;;;13.54;75.32;98994.88;5038642;28;20286;-76
2021/09/26 10:07:18;;;;;;;;;;;;;;;13.81;75.71;98991.34;5025231;28;19975;-78
2021/09/26 10:09:54;;;;;;;;;;;;;;;14.01;75.20;98998.50;5037585;28;19926;-76
2021/09/26 10:12:26;;;;;;;;;;;;;;;14.09;75.13;98998.22;5036265;28;19922;-76
2021/09/26 10:15:07;;;;;;;;;;;;;;;14.17;74.76;99004.03;5009877;28;20015;-78
2021/09/26 10:17:54;;;;;;;;;;;;;;;14.33;74.71;99006.09;5015874;28;19994;-78
2021/09/26 10:20:30;;;;;;;;;;;;;;;14.58;75.28;99006.03;5022460;28;19931;-77
2021/09/26 10:26:00;;;;;;;;;;;;;;;14.65;74.29;99010.13;5015301;28;19937;-76
2021/09/26 10:28:27;;;;;;;;;;;;;;;14.60;73.96;99006.81;5012774;28;19925;-75
2021/09/26 10:30:58;;;;;;;;;;;;;;;14.48;73.26;99008.13;5029005;28;20391;-77
2021/09/26 10:33:30;;;;;;;;;;;;;;;14.28;73.13;99017.59;5032305;28;19925;-75
2021/09/26 10:35:57;;;;;;;;;;;;;;;14.25;73.90;99012.44;5008957;28;19943;-75
2021/09/26 10:38:48;;;;;;;;;;;;;;;14.23;73.84;99013.44;5009970;28;19963;-74
2021/09/26 10:42:26;;;;;;;;;;;;;;;14.36;73.73;99024.28;5013604;28;19948;-77
2021/09/26 10:45:00;;;;;;;;;;;;;;;14.49;73.51;99028.16;5021852;28;20363;-78
2021/09/26 10:47:29;;;;;;;;;;;;;;;14.73;73.92;99023.78;4995030;28;20015;-74
2021/09/26 10:50:01;;;;;;;;;;;;;;;14.98;73.30;99022.00;5031920;28;19925;-75
2021/09/26 10:52:41;;;;;;;;;;;;;;;15.21;73.06;99029.78;5014527;28;19929;-77
2021/09/26 10:55:15;;;;;;;;;;;;;;;15.36;72.42;99022.22;5013960;28;20380;-77
2021/09/26 10:57:43;;;;;;;;;;;;;;;15.40;72.30;99028.16;5003261;28;19974;-76
2021/09/26 11:00:09;;;;;;;;;;;;;;;15.30;71.71;99033.81;5032755;28;19921;-75
2021/09/26 11:02:38;;;;;;;;;;;;;;;15.27;71.42;99033.06;4991275;28;19921;-75
2021/09/26 11:05:27;;;;;;;;;;;;;;;15.40;71.82;99038.66;5011434;28;20001;-76
2021/09/26 11:07:59;;;;;;;;;;;;;;;15.44;71.61;99046.34;5013153;28;19943;-75
2021/09/26 11:10:54;;;;;;;;;;;;;;;15.33;71.02;99049.41;5012721;28;20008;-75
2021/09/26 11:13:22;;;;;;;;;;;;;;;15.23;70.76;99053.31;5010570;28;19983;-77
2021/09/26 11:15:59;;;;;;;;;;;;;;;15.14;70.82;99058.91;5027763;28;20447;-75
2021/09/26 11:18:43;;;;;;;;;;;;;;;15.04;70.40;99069.75;5028778;28;20438;-78
2021/09/26 11:21:08;;;;;;;;;;;;;;;14.80;70.67;99083.78;5030244;28;19921;-73
2021/09/26 11:23:35;;;;;;;;;;;;;;;14.68;71.05;99079.84;5017402;28;19935;-75
2021/09/26 11:26:03;;;;;;;;;;;;;;;14.67;71.67;99080.75;5013460;28;20031;-76
2021/09/26 11:28:40;;;;;;;;;;;;;;;14.66;71.78;99079.91;5002691;28;19983;-76
2021/09/26 11:31:09;;;;;;;;;;;;;;;14.78;71.97;99089.09;5006210;28;19960;-75
2021/09/26 11:33:54;;;;;;;;;;;;;;;14.86;71.87;99084.41;5032540;28;20234;-75
2021/09/26 11:36:20;;;;;;;;;;;;;;;14.89;71.97;99089.53;5031935;28;19933;-76
2021/09/26 11:38:46;;;;;;;;;;;;;;;14.89;71.75;99093.94;5015444;28;20020;-74
2021/09/26 11:41:11;;;;;;;;;;;;;;;15.02;72.19;99097.78;5014888;28;20023;-76
2021/09/26 11:43:44;;;;;;;;;;;;;;;15.19;71.52;99097.13;5014840;28;19929;-77
2021/09/26 11:46:22;;;;;;;;;;;;;;;15.36;71.36;99100.84;4999899;28;19921;-77
2021/09/26 11:48:49;;;;;;;;;;;;;;;15.31;71.36;99102.78;4983547;28;20278;-77
2021/09/26 11:51:15;;;;;;;;;;;;;;;15.18;71.12;99108.53;5017860;28;19975;-77
2021/09/26 11:53:42;;;;;;;;;;;;;;;15.11;71.15;99108.81;5016288;28;20501;-73
2021/09/26 11:56:12;;;;;;;;;;;;;;;15.03;71.11;99103.84;4997405;28;19924;-76
2021/09/26 11:58:41;;;;;;;;;;;;;;;14.91;71.25;99111.28;5015591;28;19936;-75
2021/09/26 12:01:07;;;;;;;;;;;;;;;14.73;71.35;99117.22;5016287;28;20296;-73
2021/09/26 12:03:36;;;;;;;;;;;;;;;14.68;71.49;99121.72;5017055;28;19921;-75
2021/09/26 12:06:05;;;;;;;;;;;;;;;14.58;71.18;99132.53;5015784;28;19927;-74
2021/09/26 12:08:41;;;;;;;;;;;;;;;14.41;71.21;99130.53;5016800;28;19971;-76
2021/09/26 12:11:10;;;;;;;;;;;;;;;14.27;70.93;99140.59;5031970;28;19921;-74
2021/09/26 12:13:46;;;;;;;;;;;;;;;13.92;71.41;99101.66;5034088;28;19932;-75
2021/09/26 12:16:12;;;;;;;;;;;;;;;14.09;71.66;99145.56;5035225;28;19964;-77
2021/09/26 12:18:37;;;;;;;;;;;;;;;14.04;71.24;99144.84;5023597;28;19932;-75
2021/09/26 12:21:04;;;;;;;;;;;;;;;13.99;71.75;99152.88;4990490;28;19920;-73
2021/09/26 12:23:50;;;;;;;;;;;;;;;14.00;71.91;99157.19;5026667;28;19947;-75
2021/09/26 12:26:21;;;;;;;;;;;;;;;13.96;71.70;99155.56;5030086;28;20062;-77
2021/09/26 12:28:57;;;;;;;;;;;;;;;13.93;71.74;99157.44;5016313;28;19929;-74
2021/09/26 12:31:25;;;;;;;;;;;;;;;13.92;71.77;99172.28;5033837;28;19921;-76
2021/09/26 12:33:54;;;;;;;;;;;;;;;13.85;71.88;99160.31;5015619;28;20015;-75
2021/09/26 12:36:21;;;;;;;;;;;;;;;13.76;71.82;99164.09;5015148;28;19925;-75
2021/09/26 12:38:46;;;;;;;;;;;;;;;13.70;71.70;99177.34;5015566;28;19948;-76
2021/09/26 12:41:18;;;;;;;;;;;;;;;13.59;72.12;99182.91;5015647;28;19971;-73
2021/09/26 12:43:46;;;;;;;;;;;;;;;13.58;71.98;99177.72;5031140;28;19920;-76
2021/09/26 12:46:15;;;;;;;;;;;;;;;13.54;71.73;99184.81;5031903;28;19925;-77
2021/09/26 12:48:42;;;;;;;;;;;;;;;13.55;71.89;99195.22;5021380;28;19936;-76
2021/09/26 12:51:25;;;;;;;;;;;;;;;13.47;71.20;99186.75;5016657;28;19921;-77
2021/09/26 12:53:51;;;;;;;;;;;;;;;13.44;71.77;99199.06;5033785;28;19970;-79
2021/09/26 12:56:23;;;;;;;;;;;;;;;13.39;71.68;99202.66;5033373;28;19925;-75
2021/09/26 12:58:52;;;;;;;;;;;;;;;13.42;71.69;99204.34;5015177;28;20032;-76
2021/09/26 13:01:27;;;;;;;;;;;;;;;13.46;71.85;99211.19;5031927;28;19932;-76
2021/09/26 13:04:04;;;;;;;;;;;;;;;13.49;71.57;99195.41;5016523;28;20444;-77